Terminal Aerodrome Forecast
Issued by NWS Lake Charles, LA

Home | Current Version | Previous Version | Text Only | Print | Product List | Glossary On
Versions: 1 2 3 4 5 6 7 8 9 10 11 12 13 14
196
FTUS44 KLCH 080530
TAFBPT
TAF
KBPT 080530Z 0806/0906 VRB03KT 4SM BR SKC
      TEMPO 0806/0810 1 1/2SM BR
     FM081200 33010G15KT P6SM SKC
     FM081500 33015G22KT P6SM SKC
     FM090000 33011KT P6SM SKC=

USA.gov is the U.S. government's official web portal to all federal, state and local government web resources and services.